Time;durP1;ratioP1;P1;durP2;ratioP2;P2;SDS_P1;SDS_P2;PMS_P1;PMS_P2;Temp;Humidity;BMP_temperature;BMP_pressure;BME280_temperature;BME280_humidity;BME280_pressure;Samples;Min_cycle;Max_cycle;Signal;HPM_P1;HPM_P2
2021/04/03 00:00:52;;;;;;;28.35;3.65;;;;;;;;;;5060190;28;20416;-79
2021/04/03 00:03:19;;;;;;;30.88;3.60;;;;;;;;;;5063059;28;20226;-79
2021/04/03 00:05:46;;;;;;;25.38;4.05;;;;;;;;;;5063806;28;20390;-79
2021/04/03 00:08:12;;;;;;;26.92;4.53;;;;;;;;;;5063272;28;20060;-79
2021/04/03 00:10:49;;;;;;;26.20;4.00;;;;;;;;;;5064255;28;20048;-79
2021/04/03 00:13:16;;;;;;;35.38;4.20;;;;;;;;;;5063328;28;20052;-80
2021/04/03 00:15:42;;;;;;;26.45;4.00;;;;;;;;;;5081058;28;20041;-79
2021/04/03 00:18:08;;;;;;;42.83;4.07;;;;;;;;;;5063297;28;20048;-79
2021/04/03 00:20:35;;;;;;;37.72;4.35;;;;;;;;;;5063085;28;20101;-79
2021/04/03 00:23:07;;;;;;;31.25;4.05;;;;;;;;;;5083605;28;20060;-79
2021/04/03 00:25:33;;;;;;;25.75;3.67;;;;;;;;;;5084188;28;20075;-79
2021/04/03 00:28:00;;;;;;;27.95;4.53;;;;;;;;;;5062350;28;20092;-79
2021/04/03 00:30:26;;;;;;;26.65;4.03;;;;;;;;;;5060820;28;20052;-79
2021/04/03 00:32:53;;;;;;;38.45;4.75;;;;;;;;;;5079237;28;20053;-79
2021/04/03 00:35:20;;;;;;;31.13;4.93;;;;;;;;;;5061909;28;20071;-79
2021/04/03 00:37:47;;;;;;;33.88;4.30;;;;;;;;;;5061162;28;20078;-79
2021/04/03 00:40:17;;;;;;;30.77;4.65;;;;;;;;;;5078939;28;20308;-79
2021/04/03 00:42:44;;;;;;;34.75;5.38;;;;;;;;;;5079202;28;20083;-79
2021/04/03 00:45:11;;;;;;;39.92;5.63;;;;;;;;;;5062590;28;20052;-79
2021/04/03 00:47:37;;;;;;;39.10;5.82;;;;;;;;;;5078953;28;20057;-82
2021/04/03 00:50:06;;;;;;;33.08;5.95;;;;;;;;;;5079957;28;20071;-81
2021/04/03 00:52:35;;;;;;;34.40;6.18;;;;;;;;;;5077921;28;20041;-81
2021/04/03 00:55:05;;;;;;;40.67;6.07;;;;;;;;;;5074626;28;20048;-83
2021/04/03 00:57:35;;;;;;;31.95;5.00;;;;;;;;;;5057282;28;20063;-81
2021/04/03 01:00:01;;;;;;;44.03;5.53;;;;;;;;;;5075875;28;20060;-81
2021/04/03 01:02:28;;;;;;;44.10;5.88;;;;;;;;;;5075871;28;20052;-82
2021/04/03 01:04:55;;;;;;;41.40;5.80;;;;;;;;;;5059252;28;20177;-81
2021/04/03 01:07:21;;;;;;;64.80;7.55;;;;;;;;;;5074597;28;20216;-81
2021/04/03 01:09:49;;;;;;;50.38;7.50;;;;;;;;;;5059699;28;20312;-81
2021/04/03 01:12:15;;;;;;;44.45;5.97;;;;;;;;;;5076391;28;20050;-81
2021/04/03 01:14:53;;;;;;;57.45;5.85;;;;;;;;;;5059836;28;20049;-83
2021/04/03 01:17:36;;;;;;;50.42;6.10;;;;;;;;;;5077524;28;20052;-83
2021/04/03 01:20:25;;;;;;;38.30;5.65;;;;;;;;;;5076785;28;20044;-82
2021/04/03 01:23:10;;;;;;;41.58;5.82;;;;;;;;;;5061002;28;20056;-81
2021/04/03 01:25:52;;;;;;;43.45;5.45;;;;;;;;;;5060095;28;20048;-81
2021/04/03 01:28:37;;;;;;;37.90;5.43;;;;;;;;;;5060752;28;20399;-82
2021/04/03 01:31:07;;;;;;;39.67;5.82;;;;;;;;;;5076652;28;20117;-82
2021/04/03 01:33:34;;;;;;;42.22;6.45;;;;;;;;;;5059111;28;20044;-82
2021/04/03 01:36:03;;;;;;;53.05;6.43;;;;;;;;;;5081662;28;20052;-82
2021/04/03 01:38:34;;;;;;;63.35;6.18;;;;;;;;;;5093330;28;20141;-82
2021/04/03 01:41:01;;;;;;;65.22;7.18;;;;;;;;;;5093511;28;20072;-82
2021/04/03 01:43:30;;;;;;;48.58;7.15;;;;;;;;;;5075456;28;20066;-82
2021/04/03 01:45:56;;;;;;;48.00;6.88;;;;;;;;;;5068153;28;20044;-83
2021/04/03 01:48:23;;;;;;;51.10;6.15;;;;;;;;;;5077658;28;20052;-81
2021/04/03 01:50:53;;;;;;;54.60;8.00;;;;;;;;;;5059802;28;20075;-81
2021/04/03 01:53:20;;;;;;;59.13;7.30;;;;;;;;;;5086611;28;20125;-81
2021/04/03 01:55:46;;;;;;;50.05;6.70;;;;;;;;;;5070436;28;20056;-83
2021/04/03 01:58:12;;;;;;;48.00;6.25;;;;;;;;;;5068733;28;20051;-82
2021/04/03 02:00:39;;;;;;;63.25;6.70;;;;;;;;;;5077606;28;20194;-81
2021/04/03 02:03:08;;;;;;;53.88;9.02;;;;;;;;;;5077992;28;20045;-81
2021/04/03 02:05:36;;;;;;;55.92;7.72;;;;;;;;;;5077895;28;20053;-81
2021/04/03 02:08:12;;;;;;;47.28;7.97;;;;;;;;;;5077805;28;20457;-81
2021/04/03 02:10:39;;;;;;;47.28;7.07;;;;;;;;;;5060750;28;20058;-83
2021/04/03 02:13:05;;;;;;;55.63;6.88;;;;;;;;;;5069268;28;20268;-82
2021/04/03 02:15:31;;;;;;;68.38;8.05;;;;;;;;;;5087261;28;20060;-81
2021/04/03 02:17:57;;;;;;;53.97;7.45;;;;;;;;;;5080861;28;20075;-81
2021/04/03 02:20:24;;;;;;;55.17;8.30;;;;;;;;;;5073594;28;20041;-83
2021/04/03 02:22:51;;;;;;;54.88;7.75;;;;;;;;;;5067021;28;20053;-81
2021/04/03 02:25:17;;;;;;;43.63;7.55;;;;;;;;;;5059407;28;20053;-81
2021/04/03 02:27:44;;;;;;;52.40;8.48;;;;;;;;;;5060640;28;20134;-83
2021/04/03 02:30:12;;;;;;;46.97;6.78;;;;;;;;;;5069995;28;20053;-80
2021/04/03 02:32:39;;;;;;;60.80;8.88;;;;;;;;;;5072442;28;20049;-82
2021/04/03 02:35:08;;;;;;;54.83;8.15;;;;;;;;;;5059992;28;20313;-82
2021/04/03 02:37:41;;;;;;;61.88;7.28;;;;;;;;;;5059039;28;20059;-82
2021/04/03 02:40:09;;;;;;;56.85;9.07;;;;;;;;;;5058380;28;20106;-82
2021/04/03 02:42:38;;;;;;;41.83;8.10;;;;;;;;;;5056987;28;20052;-82
2021/04/03 02:45:08;;;;;;;48.88;7.03;;;;;;;;;;5054995;28;20071;-82
2021/04/03 02:47:34;;;;;;;51.60;7.85;;;;;;;;;;5072147;28;20059;-82
2021/04/03 02:50:21;;;;;;;72.22;8.68;;;;;;;;;;5058991;28;20056;-82
2021/04/03 02:52:50;;;;;;;64.47;9.60;;;;;;;;;;5052565;28;20059;-83
2021/04/03 02:55:30;;;;;;;61.58;8.00;;;;;;;;;;5058920;28;20056;-82
2021/04/03 02:57:59;;;;;;;57.05;9.73;;;;;;;;;;5076514;28;20059;-83
2021/04/03 03:00:26;;;;;;;46.42;9.05;;;;;;;;;;5076700;28;20048;-82
2021/04/03 03:02:53;;;;;;;54.80;7.75;;;;;;;;;;5076835;28;20118;-82
2021/04/03 03:05:26;;;;;;;59.10;9.88;;;;;;;;;;5078154;28;20106;-83
2021/04/03 03:07:52;;;;;;;68.35;9.00;;;;;;;;;;5063399;28;20466;-83
2021/04/03 03:10:19;;;;;;;65.30;10.23;;;;;;;;;;5080321;28;20056;-82
2021/04/03 03:12:45;;;;;;;68.45;9.45;;;;;;;;;;5079235;28;20111;-82
2021/04/03 03:15:15;;;;;;;59.03;9.20;;;;;;;;;;5079681;28;20553;-82
2021/04/03 03:17:42;;;;;;;48.47;8.00;;;;;;;;;;5078932;28;20079;-83
2021/04/03 03:20:11;;;;;;;52.42;8.05;;;;;;;;;;5061471;28;20393;-83
2021/04/03 03:22:37;;;;;;;68.95;9.23;;;;;;;;;;5078698;28;20048;-82
2021/04/03 03:25:04;;;;;;;78.55;10.25;;;;;;;;;;5079749;28;20067;-83
2021/04/03 03:27:30;;;;;;;83.70;9.10;;;;;;;;;;5079843;28;20336;-83
2021/04/03 03:30:02;;;;;;;54.05;8.75;;;;;;;;;;5069714;28;20090;-83
2021/04/03 03:32:29;;;;;;;75.53;8.80;;;;;;;;;;5042398;28;20072;-83
2021/04/03 03:34:55;;;;;;;85.22;9.50;;;;;;;;;;5075569;28;20052;-83
2021/04/03 03:37:26;;;;;;;59.90;10.25;;;;;;;;;;5075400;28;20049;-83
2021/04/03 03:39:52;;;;;;;64.60;8.82;;;;;;;;;;5059680;28;20111;-83
2021/04/03 03:42:18;;;;;;;65.38;9.80;;;;;;;;;;5074993;28;20049;-83
2021/04/03 03:44:45;;;;;;;77.07;10.27;;;;;;;;;;5059997;28;20111;-83
2021/04/03 03:47:11;;;;;;;68.30;10.20;;;;;;;;;;5060871;28;20318;-83
2021/04/03 03:49:37;;;;;;;86.30;10.85;;;;;;;;;;5061051;28;20083;-83
2021/04/03 03:52:04;;;;;;;89.00;10.05;;;;;;;;;;5059220;28;20059;-83
2021/04/03 03:54:31;;;;;;;62.28;9.63;;;;;;;;;;5041427;28;20439;-83
2021/04/03 03:56:57;;;;;;;55.15;8.93;;;;;;;;;;5041057;28;20117;-82
2021/04/03 03:59:23;;;;;;;54.88;9.55;;;;;;;;;;5059807;28;20312;-83
2021/04/03 04:01:49;;;;;;;62.78;8.98;;;;;;;;;;5059151;28;20178;-83
2021/04/03 04:04:19;;;;;;;62.95;10.30;;;;;;;;;;5042363;28;20139;-83
2021/04/03 04:06:45;;;;;;;97.13;12.48;;;;;;;;;;5041003;28;20053;-83
2021/04/03 04:09:11;;;;;;;76.82;10.45;;;;;;;;;;5058153;28;20061;-83
2021/04/03 04:11:37;;;;;;;75.85;10.45;;;;;;;;;;5041738;28;20077;-83
2021/04/03 04:14:03;;;;;;;70.75;10.13;;;;;;;;;;5042371;28;20112;-83
2021/04/03 04:16:29;;;;;;;76.30;10.63;;;;;;;;;;5041125;28;20152;-83
2021/04/03 04:18:58;;;;;;;72.95;11.38;;;;;;;;;;5059822;28;20068;-83
2021/04/03 04:21:25;;;;;;;82.13;12.93;;;;;;;;;;5041421;28;20061;-83
2021/04/03 04:23:51;;;;;;;80.05;11.30;;;;;;;;;;5058684;28;20114;-83
2021/04/03 04:26:17;;;;;;;76.70;10.40;;;;;;;;;;5058265;28;20143;-83
2021/04/03 04:28:43;;;;;;;61.85;10.52;;;;;;;;;;5040050;28;20103;-83
2021/04/03 04:31:10;;;;;;;96.22;12.55;;;;;;;;;;5057978;28;20060;-84
2021/04/03 04:33:36;;;;;;;99.50;13.10;;;;;;;;;;5072886;28;20110;-83
2021/04/03 04:36:02;;;;;;;76.63;10.63;;;;;;;;;;5040340;28;20049;-82
2021/04/03 04:38:30;;;;;;;84.95;11.65;;;;;;;;;;5075293;28;20456;-83
2021/04/03 04:40:56;;;;;;;77.65;12.23;;;;;;;;;;5085883;28;20044;-83
2021/04/03 04:43:26;;;;;;;75.72;11.73;;;;;;;;;;5084483;28;20071;-84
2021/04/03 04:45:53;;;;;;;76.22;13.48;;;;;;;;;;5063512;28;20107;-84
2021/04/03 04:48:19;;;;;;;625.88;42.45;;;;;;;;;;5060881;28;20056;-84
2021/04/03 04:50:48;;;;;;;110.35;15.90;;;;;;;;;;5058740;28;20067;-84
2021/04/03 04:53:14;;;;;;;63.85;13.98;;;;;;;;;;5074700;28;20389;-83
2021/04/03 04:55:40;;;;;;;86.70;13.98;;;;;;;;;;5076902;28;20364;-84
2021/04/03 04:58:06;;;;;;;61.67;12.73;;;;;;;;;;5077514;28;20048;-84
2021/04/03 05:00:33;;;;;;;58.88;13.48;;;;;;;;;;5059208;28;20420;-84
2021/04/03 05:03:00;;;;;;;72.95;13.52;;;;;;;;;;5058681;28;20071;-84
2021/04/03 05:05:26;;;;;;;49.83;12.43;;;;;;;;;;5054025;28;20053;-84
2021/04/03 05:07:55;;;;;;;56.75;13.38;;;;;;;;;;5056588;28;20052;-84
2021/04/03 05:10:21;;;;;;;66.05;12.45;;;;;;;;;;5057794;28;20076;-84
2021/04/03 05:12:50;;;;;;;139.45;16.92;;;;;;;;;;5057392;28;20336;-83
2021/04/03 05:15:16;;;;;;;77.22;12.35;;;;;;;;;;5058030;28;20060;-85
2021/04/03 05:17:42;;;;;;;41.85;11.45;;;;;;;;;;5057664;28;20072;-84
2021/04/03 05:20:09;;;;;;;37.85;9.55;;;;;;;;;;5058899;28;20076;-84
2021/04/03 05:22:39;;;;;;;43.05;11.77;;;;;;;;;;5058029;28;20048;-84
2021/04/03 05:25:05;;;;;;;48.72;11.10;;;;;;;;;;5061796;28;20500;-84
2021/04/03 05:27:31;;;;;;;142.10;16.30;;;;;;;;;;5057600;28;20053;-85
2021/04/03 05:29:57;;;;;;;31.75;10.50;;;;;;;;;;5040273;28;20116;-85
2021/04/03 05:32:23;;;;;;;26.40;9.20;;;;;;;;;;5040057;28;20056;-84
2021/04/03 05:34:49;;;;;;;53.33;10.52;;;;;;;;;;5058119;28;20060;-84
2021/04/03 05:37:26;;;;;;;28.83;9.57;;;;;;;;;;5067367;28;20140;-84
2021/04/03 05:39:55;;;;;;;50.75;10.63;;;;;;;;;;5076936;28;20049;-84
2021/04/03 05:42:27;;;;;;;58.38;11.73;;;;;;;;;;5060788;28;20052;-84
2021/04/03 05:44:54;;;;;;;27.52;10.70;;;;;;;;;;5076510;28;20050;-84
2021/04/03 05:47:20;;;;;;;73.50;13.40;;;;;;;;;;5078910;28;20052;-84
2021/04/03 05:49:49;;;;;;;34.70;10.82;;;;;;;;;;5081100;28;20036;-84
2021/04/03 05:52:17;;;;;;;40.28;9.48;;;;;;;;;;5074395;28;20048;-84
2021/04/03 05:54:43;;;;;;;29.92;10.38;;;;;;;;;;5074042;28;20079;-83
2021/04/03 05:57:12;;;;;;;46.00;10.68;;;;;;;;;;5062275;28;20063;-84
2021/04/03 05:59:40;;;;;;;35.55;10.05;;;;;;;;;;5089611;28;20181;-84
2021/04/03 06:02:12;;;;;;;27.05;9.30;;;;;;;;;;5087834;28;20052;-82
2021/04/03 06:04:40;;;;;;;20.35;9.35;;;;;;;;;;5071537;28;20053;-82
2021/04/03 06:07:09;;;;;;;22.23;9.65;;;;;;;;;;5092037;28;20047;-82
2021/04/03 06:09:35;;;;;;;22.23;8.88;;;;;;;;;;5090546;28;20295;-82
2021/04/03 06:12:02;;;;;;;42.42;6.28;;;;;;;;;;5088589;28;20079;-82
2021/04/03 06:14:33;;;;;;;14.95;6.22;;;;;;;;;;5088599;28;20044;-82
2021/04/03 06:17:02;;;;;;;17.02;6.70;;;;;;;;;;5071512;28;20058;-83
2021/04/03 06:19:35;;;;;;;10.45;5.40;;;;;;;;;;5071766;28;20052;-82
2021/04/03 06:22:02;;;;;;;14.40;5.10;;;;;;;;;;5088298;28;20055;-82
2021/04/03 06:24:37;;;;;;;14.27;4.75;;;;;;;;;;5067618;28;20129;-82
2021/04/03 06:27:06;;;;;;;6.93;4.00;;;;;;;;;;5055049;28;20052;-83
2021/04/03 06:29:49;;;;;;;13.13;3.78;;;;;;;;;;5073344;28;20092;-83
2021/04/03 06:32:17;;;;;;;6.75;3.40;;;;;;;;;;5056527;28;20044;-83
2021/04/03 06:34:47;;;;;;;11.52;3.67;;;;;;;;;;5058251;28;20063;-82
2021/04/03 06:37:13;;;;;;;7.57;3.83;;;;;;;;;;5074280;28;20044;-83
2021/04/03 06:40:00;;;;;;;9.07;3.65;;;;;;;;;;5073720;28;20328;-83
2021/04/03 06:42:44;;;;;;;8.60;3.70;;;;;;;;;;5045594;28;20037;-82
2021/04/03 06:45:20;;;;;;;11.27;4.07;;;;;;;;;;5037535;28;20044;-83
2021/04/03 06:47:50;;;;;;;12.50;3.70;;;;;;;;;;5050105;28;20436;-83
2021/04/03 06:50:25;;;;;;;14.65;4.55;;;;;;;;;;5056002;28;20392;-83
2021/04/03 06:52:51;;;;;;;11.23;3.90;;;;;;;;;;5056178;28;20380;-82
2021/04/03 06:55:23;;;;;;;17.15;3.72;;;;;;;;;;5055937;28;20247;-83
2021/04/03 06:57:49;;;;;;;8.23;3.75;;;;;;;;;;5054510;28;20048;-83
2021/04/03 07:00:18;;;;;;;6.90;3.00;;;;;;;;;;5090793;28;20071;-83
2021/04/03 07:02:51;;;;;;;11.88;3.78;;;;;;;;;;5039914;28;20069;-83
2021/04/03 07:05:23;;;;;;;6.45;3.38;;;;;;;;;;5051578;28;20089;-84
2021/04/03 07:07:50;;;;;;;15.68;4.25;;;;;;;;;;5068181;28;20051;-83
2021/04/03 07:10:16;;;;;;;21.23;4.68;;;;;;;;;;5068138;28;20033;-83
2021/04/03 07:12:45;;;;;;;16.38;4.18;;;;;;;;;;5068736;28;20045;-82
2021/04/03 07:15:12;;;;;;;12.98;3.55;;;;;;;;;;5069324;28;20155;-82
2021/04/03 07:17:40;;;;;;;9.60;3.92;;;;;;;;;;5075062;28;20052;-82
2021/04/03 07:20:08;;;;;;;10.80;4.60;;;;;;;;;;5058039;28;20064;-81
2021/04/03 07:22:34;;;;;;;9.65;3.72;;;;;;;;;;5057546;28;20045;-82
2021/04/03 07:25:04;;;;;;;11.68;3.70;;;;;;;;;;5034015;28;20056;-82
2021/04/03 07:27:35;;;;;;;13.40;3.92;;;;;;;;;;5034909;28;20065;-82
2021/04/03 07:30:01;;;;;;;13.85;3.78;;;;;;;;;;5034022;28;20151;-81
2021/04/03 07:32:40;;;;;;;8.10;3.63;;;;;;;;;;5050732;28;20087;-81
2021/04/03 07:35:14;;;;;;;13.05;4.07;;;;;;;;;;5051649;28;20272;-81
2021/04/03 07:37:41;;;;;;;8.77;3.85;;;;;;;;;;5034270;28;20092;-82
2021/04/03 07:40:12;;;;;;;8.55;4.07;;;;;;;;;;5049994;28;20060;-82
2021/04/03 07:42:39;;;;;;;12.75;3.95;;;;;;;;;;5049586;28;20048;-83
2021/04/03 07:45:06;;;;;;;11.80;3.80;;;;;;;;;;5050098;28;20405;-82
2021/04/03 07:47:52;;;;;;;8.77;3.70;;;;;;;;;;5041551;28;20214;-83
2021/04/03 07:50:37;;;;;;;10.63;4.35;;;;;;;;;;5012528;28;20117;-82
2021/04/03 07:53:14;;;;;;;;;;;;;;;;;;5033713;28;20053;-83
2021/04/03 07:55:42;;;;;;;10.05;3.38;;;;;;;;;;5035689;28;19921;-83
2021/04/03 07:58:17;;;;;;;12.00;2.95;;;;;;;;;;5034386;28;20198;-83
2021/04/03 08:00:44;;;;;;;8.87;2.67;;;;;;;;;;5036369;28;20189;-83
2021/04/03 08:03:14;;;;;;;11.27;2.80;;;;;;;;;;5054283;28;20517;-82
2021/04/03 08:05:40;;;;;;;10.57;3.08;;;;;;;;;;5061929;28;20139;-83
2021/04/03 08:08:18;;;;;;;6.57;2.60;;;;;;;;;;5056465;28;20171;-83
2021/04/03 08:10:49;;;;;;;8.25;2.90;;;;;;;;;;5040381;28;20048;-82
2021/04/03 08:13:17;;;;;;;10.63;2.88;;;;;;;;;;5055268;28;20048;-82
2021/04/03 08:15:47;;;;;;;12.25;4.00;;;;;;;;;;5037214;28;20048;-83
2021/04/03 08:18:16;;;;;;;12.60;4.15;;;;;;;;;;5051643;28;20408;-82
2021/04/03 08:20:49;;;;;;;11.32;3.35;;;;;;;;;;5034852;28;20045;-82
2021/04/03 08:23:28;;;;;;;10.10;2.25;;;;;;;;;;5058198;28;20152;-82
2021/04/03 08:25:57;;;;;;;5.63;2.67;;;;;;;;;;5055994;28;20143;-83
2021/04/03 08:28:23;;;;;;;13.30;3.42;;;;;;;;;;5052653;28;20056;-82
2021/04/03 08:30:53;;;;;;;10.48;3.45;;;;;;;;;;5054246;28;20060;-83
2021/04/03 08:33:19;;;;;;;13.40;4.15;;;;;;;;;;5072240;28;20048;-83
2021/04/03 08:35:47;;;;;;;11.48;4.03;;;;;;;;;;5074050;28;20044;-82
2021/04/03 08:38:24;;;;;;;15.40;5.15;;;;;;;;;;5091796;28;20469;-82
2021/04/03 08:40:55;;;;;;;16.90;4.28;;;;;;;;;;5053291;28;20201;-82
2021/04/03 08:43:25;;;;;;;11.45;3.95;;;;;;;;;;5035033;28;20053;-83
2021/04/03 08:45:52;;;;;;;15.75;4.07;;;;;;;;;;5052164;28;20068;-83
2021/04/03 08:48:18;;;;;;;11.93;3.58;;;;;;;;;;5068581;28;20067;-83
2021/04/03 08:50:52;;;;;;;12.52;3.35;;;;;;;;;;5037186;28;20049;-83
2021/04/03 08:53:18;;;;;;;11.60;3.20;;;;;;;;;;5053882;28;20508;-83
2021/04/03 08:55:44;;;;;;;10.00;3.47;;;;;;;;;;5054874;28;20274;-83
2021/04/03 08:58:13;;;;;;;10.95;3.20;;;;;;;;;;5036051;28;20051;-83
2021/04/03 09:00:43;;;;;;;11.75;3.15;;;;;;;;;;5035473;28;20052;-83
2021/04/03 09:03:11;;;;;;;13.00;2.95;;;;;;;;;;5035336;28;20213;-83
2021/04/03 09:05:37;;;;;;;8.85;2.55;;;;;;;;;;5037175;28;20148;-83
2021/04/03 09:08:23;;;;;;;7.50;2.40;;;;;;;;;;5036228;28;20325;-83
2021/04/03 09:10:57;;;;;;;7.30;2.00;;;;;;;;;;5053904;28;20112;-82
2021/04/03 09:13:35;;;;;;;12.30;2.35;;;;;;;;;;5035760;28;20409;-83
2021/04/03 09:16:13;;;;;;;10.93;2.78;;;;;;;;;;5034485;28;20049;-83
2021/04/03 09:18:41;;;;;;;9.82;2.53;;;;;;;;;;5035499;28;20086;-83
2021/04/03 09:21:22;;;;;;;9.80;2.40;;;;;;;;;;5038670;28;20052;-83
2021/04/03 09:23:54;;;;;;;12.02;2.72;;;;;;;;;;5063929;28;20121;-83
2021/04/03 09:26:37;;;;;;;8.98;2.67;;;;;;;;;;5055489;28;20151;-83
2021/04/03 09:29:07;;;;;;;16.75;2.90;;;;;;;;;;5048684;28;20059;-83
2021/04/03 09:31:40;;;;;;;9.80;2.75;;;;;;;;;;5068266;28;20048;-82
2021/04/03 09:34:17;;;;;;;7.13;2.53;;;;;;;;;;5066454;28;20411;-83
2021/04/03 09:36:44;;;;;;;7.65;2.30;;;;;;;;;;5069931;28;20051;-83
2021/04/03 09:39:17;;;;;;;7.75;2.30;;;;;;;;;;5069742;28;20124;-83
2021/04/03 09:41:50;;;;;;;7.68;2.22;;;;;;;;;;5059051;28;20095;-83
2021/04/03 09:44:16;;;;;;;10.55;2.35;;;;;;;;;;5076475;28;20101;-83
2021/04/03 09:46:43;;;;;;;9.32;2.45;;;;;;;;;;5056096;28;20048;-83
2021/04/03 09:49:10;;;;;;;5.57;2.20;;;;;;;;;;5076319;28;20224;-82
2021/04/03 09:51:40;;;;;;;12.32;2.65;;;;;;;;;;5056056;28;20189;-83
2021/04/03 09:54:06;;;;;;;7.20;2.13;;;;;;;;;;5075715;28;20287;-83
2021/04/03 09:56:33;;;;;;;7.65;2.17;;;;;;;;;;5074549;28;20106;-83
2021/04/03 09:59:02;;;;;;;7.15;2.05;;;;;;;;;;5074390;28;20163;-82
2021/04/03 10:01:29;;;;;;;5.38;1.70;;;;;;;;;;5047101;28;20056;-82
2021/04/03 10:03:56;;;;;;;6.40;1.58;;;;;;;;;;5034994;28;20055;-82
2021/04/03 10:06:39;;;;;;;5.90;1.85;;;;;;;;;;5039676;28;20132;-82
2021/04/03 10:09:05;;;;;;;3.75;1.30;;;;;;;;;;5023826;28;20076;-84
2021/04/03 10:11:31;;;;;;;4.53;1.52;;;;;;;;;;5023779;28;20417;-82
2021/04/03 10:14:00;;;;;;;4.90;1.15;;;;;;;;;;5052743;28;20083;-83
2021/04/03 10:16:40;;;;;;;3.45;1.13;;;;;;;;;;5037050;28;20552;-82
2021/04/03 10:19:06;;;;;;;5.73;1.30;;;;;;;;;;5053780;28;20067;-82
2021/04/03 10:21:35;;;;;;;5.63;1.98;;;;;;;;;;5056318;28;20475;-83
2021/04/03 10:24:07;;;;;;;5.38;2.03;;;;;;;;;;5052478;28;20060;-83
2021/04/03 10:26:43;;;;;;;4.00;1.45;;;;;;;;;;5035620;28;20323;-82
2021/04/03 10:29:09;;;;;;;8.82;1.67;;;;;;;;;;5034157;28;20372;-83
2021/04/03 10:31:39;;;;;;;5.72;1.38;;;;;;;;;;5052170;28;20063;-83
2021/04/03 10:34:05;;;;;;;6.18;1.30;;;;;;;;;;5033884;28;20126;-81
2021/04/03 10:36:34;;;;;;;5.28;1.80;;;;;;;;;;5033641;28;20368;-81
2021/04/03 10:39:00;;;;;;;4.82;1.23;;;;;;;;;;5051579;28;20092;-82
2021/04/03 10:41:27;;;;;;;6.60;1.80;;;;;;;;;;5033181;28;20063;-82
2021/04/03 10:43:53;;;;;;;5.55;1.55;;;;;;;;;;5033279;28;20228;-82
2021/04/03 10:46:19;;;;;;;6.57;1.67;;;;;;;;;;5033789;28;20139;-82
2021/04/03 10:48:51;;;;;;;5.95;1.80;;;;;;;;;;5051916;28;20057;-82
2021/04/03 10:51:17;;;;;;;5.50;1.60;;;;;;;;;;5051491;28;20052;-82
2021/04/03 10:53:58;;;;;;;7.25;1.55;;;;;;;;;;5040982;28;20166;-82
2021/04/03 10:56:27;;;;;;;4.25;1.10;;;;;;;;;;5051836;28;20354;-82
2021/04/03 10:58:53;;;;;;;5.15;1.40;;;;;;;;;;5033866;28;20088;-82
2021/04/03 11:01:20;;;;;;;5.30;1.30;;;;;;;;;;5041447;28;20084;-82
2021/04/03 11:03:46;;;;;;;5.93;1.25;;;;;;;;;;5053712;28;20053;-81
2021/04/03 11:06:12;;;;;;;4.00;0.90;;;;;;;;;;5054066;28;20230;-81
2021/04/03 11:08:41;;;;;;;8.70;1.10;;;;;;;;;;5065134;28;20465;-82
2021/04/03 11:11:08;;;;;;;3.80;1.17;;;;;;;;;;5051833;28;20063;-82
2021/04/03 11:13:34;;;;;;;4.15;1.17;;;;;;;;;;5067370;28;20122;-82
2021/04/03 11:16:02;;;;;;;5.97;1.77;;;;;;;;;;5050451;28;20251;-82
2021/04/03 11:18:28;;;;;;;7.03;2.15;;;;;;;;;;5052900;28;20048;-81
2021/04/03 11:20:55;;;;;;;13.73;2.75;;;;;;;;;;5070120;28;20175;-81
2021/04/03 11:23:21;;;;;;;7.50;2.17;;;;;;;;;;5069309;28;20135;-81
2021/04/03 11:25:49;;;;;;;11.20;2.38;;;;;;;;;;5053880;28;20059;-81
2021/04/03 11:28:17;;;;;;;8.82;2.28;;;;;;;;;;5077271;28;20070;-81
2021/04/03 11:30:43;;;;;;;4.18;1.45;;;;;;;;;;5075477;28;20040;-82
2021/04/03 11:33:12;;;;;;;4.03;1.20;;;;;;;;;;5035270;28;20107;-82
2021/04/03 11:35:41;;;;;;;6.20;1.77;;;;;;;;;;5064942;28;20044;-81
2021/04/03 11:38:10;;;;;;;9.48;1.73;;;;;;;;;;5058175;28;20060;-82
2021/04/03 11:40:36;;;;;;;7.30;1.65;;;;;;;;;;5069449;28;20057;-83
2021/04/03 11:43:04;;;;;;;8.55;1.55;;;;;;;;;;5056971;28;20040;-80
2021/04/03 11:45:32;;;;;;;8.63;1.95;;;;;;;;;;5042865;28;20056;-82
2021/04/03 11:47:58;;;;;;;9.57;1.60;;;;;;;;;;5042760;28;20045;-81
2021/04/03 11:50:29;;;;;;;7.97;1.88;;;;;;;;;;5076748;28;20328;-81
2021/04/03 11:52:59;;;;;;;10.07;1.75;;;;;;;;;;5057504;28;20056;-81
2021/04/03 11:55:31;;;;;;;6.65;2.00;;;;;;;;;;5076739;28;20195;-81
2021/04/03 11:58:03;;;;;;;8.40;1.85;;;;;;;;;;5075340;28;20106;-81
2021/04/03 12:00:32;;;;;;;8.93;2.28;;;;;;;;;;5054357;28;20056;-81
2021/04/03 12:03:02;;;;;;;5.63;1.52;;;;;;;;;;5056009;28;20049;-81
2021/04/03 12:05:38;;;;;;;10.85;1.98;;;;;;;;;;5055931;28;20051;-81
2021/04/03 12:08:04;;;;;;;7.75;1.83;;;;;;;;;;5057661;28;20199;-81
2021/04/03 12:10:33;;;;;;;5.97;1.48;;;;;;;;;;5055757;28;20060;-81
2021/04/03 12:12:59;;;;;;;6.55;1.55;;;;;;;;;;5057101;28;20048;-81
2021/04/03 12:15:26;;;;;;;5.22;1.50;;;;;;;;;;5073493;28;20045;-81
2021/04/03 12:17:52;;;;;;;8.45;1.77;;;;;;;;;;5038975;28;20059;-81
2021/04/03 12:20:21;;;;;;;5.80;1.73;;;;;;;;;;5066039;28;20171;-80
2021/04/03 12:22:59;;;;;;;11.35;3.85;;;;;;;;;;5035462;28;20060;-81
2021/04/03 12:25:25;;;;;;;8.52;2.30;;;;;;;;;;5058125;28;20125;-81
2021/04/03 12:27:51;;;;;;;17.80;4.05;;;;;;;;;;5068345;28;20166;-81
2021/04/03 12:30:17;;;;;;;17.73;4.60;;;;;;;;;;5087064;28;20053;-81
2021/04/03 12:32:45;;;;;;;10.82;3.90;;;;;;;;;;5088388;28;20057;-81
2021/04/03 12:35:11;;;;;;;10.63;2.67;;;;;;;;;;5065650;28;20053;-81
2021/04/03 12:37:40;;;;;;;13.55;2.00;;;;;;;;;;5063343;28;20277;-81
2021/04/03 12:40:09;;;;;;;13.18;2.97;;;;;;;;;;5073093;28;20046;-81
2021/04/03 12:42:35;;;;;;;11.82;2.53;;;;;;;;;;5054864;28;20135;-81
2021/04/03 12:45:01;;;;;;;14.13;3.53;;;;;;;;;;5054522;28;20041;-81
2021/04/03 12:47:31;;;;;;;6.30;2.25;;;;;;;;;;5053832;28;20048;-81
2021/04/03 12:49:57;;;;;;;8.00;2.72;;;;;;;;;;5053551;28;20049;-81
2021/04/03 12:52:37;;;;;;;9.25;2.80;;;;;;;;;;5042871;28;20043;-81
2021/04/03 12:55:05;;;;;;;9.63;2.70;;;;;;;;;;5073620;28;20044;-81
2021/04/03 12:57:34;;;;;;;9.70;3.05;;;;;;;;;;5075862;28;20055;-81
2021/04/03 13:00:00;;;;;;;10.30;3.13;;;;;;;;;;5053915;28;20509;-81
2021/04/03 13:02:26;;;;;;;15.32;3.47;;;;;;;;;;5035606;28;20124;-81
2021/04/03 13:04:55;;;;;;;13.23;3.15;;;;;;;;;;5037323;28;20053;-81
2021/04/03 13:07:23;;;;;;;453.80;306.33;;;;;;;;;;5054013;28;20057;-81
2021/04/03 13:09:49;;;;;;;12.48;4.78;;;;;;;;;;5056283;28;20500;-82
2021/04/03 13:12:18;;;;;;;9.40;2.70;;;;;;;;;;5054008;28;20065;-81
2021/04/03 13:14:45;;;;;;;12.30;3.20;;;;;;;;;;5053564;28;20139;-81
2021/04/03 13:17:14;;;;;;;14.35;3.40;;;;;;;;;;5042016;28;20041;-82
2021/04/03 13:19:47;;;;;;;9.02;3.25;;;;;;;;;;5039912;28;20068;-82
2021/04/03 13:22:18;;;;;;;8.73;2.63;;;;;;;;;;5033556;28;20123;-81
2021/04/03 13:24:45;;;;;;;11.25;2.97;;;;;;;;;;5038011;28;20106;-81
2021/04/03 13:27:14;;;;;;;15.38;3.97;;;;;;;;;;5038380;28;20052;-80
2021/04/03 13:29:43;;;;;;;11.55;3.58;;;;;;;;;;5030640;28;20312;-80
2021/04/03 13:32:09;;;;;;;6.60;1.75;;;;;;;;;;5017007;28;20372;-80
2021/04/03 13:34:41;;;;;;;9.02;2.15;;;;;;;;;;5014935;28;20131;-80
2021/04/03 13:37:10;;;;;;;8.52;2.03;;;;;;;;;;5033771;28;20045;-80
2021/04/03 13:39:36;;;;;;;10.60;2.45;;;;;;;;;;5015669;28;20149;-80
2021/04/03 13:42:05;;;;;;;8.95;2.63;;;;;;;;;;5032894;28;20056;-80
2021/04/03 13:44:32;;;;;;;11.63;2.20;;;;;;;;;;5036328;28;20284;-80
2021/04/03 13:47:05;;;;;;;10.70;3.03;;;;;;;;;;5051580;28;20103;-80
2021/04/03 13:49:37;;;;;;;10.48;3.28;;;;;;;;;;5036506;28;20427;-80
2021/04/03 13:52:04;;;;;;;11.25;3.25;;;;;;;;;;5036717;28;20085;-81
2021/04/03 13:54:30;;;;;;;9.18;2.92;;;;;;;;;;5054866;28;20143;-80
2021/04/03 13:57:02;;;;;;;12.20;4.18;;;;;;;;;;5020605;28;20064;-81
2021/04/03 13:59:28;;;;;;;14.93;3.90;;;;;;;;;;5034343;28;20064;-81
2021/04/03 14:01:57;;;;;;;15.57;3.75;;;;;;;;;;5016860;28;20053;-80
2021/04/03 14:04:24;;;;;;;15.10;4.60;;;;;;;;;;5020904;28;20029;-80
2021/04/03 14:06:53;;;;;;;16.30;4.22;;;;;;;;;;5027453;28;20191;-80
2021/04/03 14:09:19;;;;;;;16.10;3.42;;;;;;;;;;5024771;28;20045;-80
2021/04/03 14:11:49;;;;;;;14.25;3.63;;;;;;;;;;5034276;28;20132;-80
2021/04/03 14:14:17;;;;;;;14.60;3.17;;;;;;;;;;5018318;28;20058;-80
2021/04/03 14:16:49;;;;;;;17.80;3.92;;;;;;;;;;5031288;28;20049;-81
2021/04/03 14:19:37;;;;;;;16.65;4.55;;;;;;;;;;5053068;28;20064;-82
2021/04/03 14:22:03;;;;;;;15.20;4.20;;;;;;;;;;5053228;28;20045;-81
2021/04/03 14:24:32;;;;;;;14.30;3.00;;;;;;;;;;5021472;28;20056;-81
2021/04/03 14:27:01;;;;;;;22.67;4.55;;;;;;;;;;5053408;28;20071;-79
2021/04/03 14:29:27;;;;;;;24.73;5.10;;;;;;;;;;5030080;28;20052;-80
2021/04/03 14:31:53;;;;;;;19.88;5.45;;;;;;;;;;5025775;28;20127;-80
2021/04/03 14:34:19;;;;;;;23.73;5.85;;;;;;;;;;5035607;28;20190;-82
2021/04/03 14:36:45;;;;;;;23.35;5.60;;;;;;;;;;5024898;28;20320;-81
2021/04/03 14:39:18;;;;;;;12.02;4.50;;;;;;;;;;5054585;28;20132;-79
2021/04/03 14:41:46;;;;;;;20.77;4.28;;;;;;;;;;5036840;28;20057;-80